MET'MAP v2.0
soon released !

Expected late october,
this new version will be
more efficient, smarter,
and hosted on a brand new
server x3 powerfull...
...and still free !


Not compatible ?
Try the mobile version !

LOG IN : | Subscribe | Disclaimer | Who is Orbifly ? |
ICAO code :

TAF - LFBU Angoulême Brie Champniers - 30 Oct 2020 05:54 UTC
Data Sources :     NOAA   


- Airport Elevation : 436 ft
- IATA code : ANG
- No reported NOTAMs.


LFBU - Angoulême Brie Champniers

Latest METAR recorded : 2015/08/11 08:00 LFBU 110800Z AUTO 04007KT CAVOK 22/15 Q1015
TAF TAF LFBU
Valid from the 29 at 18:00 until the 30 at 18:00 UTC


291700Z 2918/3018 22005KT 9999 SCT030
TEMPO 2920/3002 2000 MIFG
PROB40 3002/3009 0300 FG VV///
TEMPO 3009/3012 BKN007

Source NOAA


MET'MAP, your aeronautical weather chart ! - Copyright ORBIFLY December 2007

Programming & Development : Alexandra Zaïnal
Co-Developer : Marc-Olivier Méhu
Technical & hardware support : Manuel Goepfert
Concept & Financing : Baudouin d'Aumeries